createdAt,value
2022-08-16T00:00:38.651Z,25.20
2022-08-16T00:03:13.357Z,25.20
2022-08-16T00:05:48.515Z,25.20
2022-08-16T00:08:36.319Z,25.10
2022-08-16T00:11:05.788Z,25.00
2022-08-16T00:13:41.923Z,25.00
2022-08-16T00:17:06.215Z,25.00
2022-08-16T00:18:59.652Z,25.10
2022-08-16T00:21:29.185Z,25.10
2022-08-16T00:23:57.047Z,25.10
2022-08-16T00:26:34.858Z,25.20
2022-08-16T00:29:07.961Z,25.20
2022-08-16T00:32:00.024Z,25.30
2022-08-16T00:34:45.166Z,25.30
2022-08-16T00:37:12.481Z,25.30
2022-08-16T00:39:45.386Z,25.10
2022-08-16T00:42:30.191Z,25.10
2022-08-16T00:45:08.273Z,25.00
2022-08-16T00:47:42.645Z,24.90
2022-08-16T00:50:16.995Z,24.80
2022-08-16T00:52:45.976Z,24.80
2022-08-16T00:55:20.599Z,24.80
2022-08-16T00:57:58.881Z,24.60
2022-08-16T01:00:32.438Z,24.50
2022-08-16T01:03:11.729Z,24.40
2022-08-16T01:05:41.680Z,24.50
2022-08-16T01:08:35.408Z,24.50
2022-08-16T01:11:00.045Z,24.40
2022-08-16T01:13:31.480Z,24.30
2022-08-16T01:16:03.841Z,24.30
2022-08-16T01:18:44.103Z,24.30
2022-08-16T01:21:33.670Z,24.30
2022-08-16T01:24:52.120Z,24.30
2022-08-16T01:27:15.039Z,24.20
2022-08-16T01:29:57.587Z,24.20
2022-08-16T01:32:33.603Z,24.20
2022-08-16T01:35:05.754Z,24.10
2022-08-16T01:37:40.579Z,24.10
2022-08-16T01:40:13.876Z,24.20
2022-08-16T01:42:44.212Z,24.10
2022-08-16T01:45:16.677Z,24.20
2022-08-16T01:47:50.998Z,24.20
2022-08-16T01:50:42.001Z,24.30
2022-08-16T01:53:11.078Z,24.20
2022-08-16T01:55:42.807Z,24.20
2022-08-16T01:58:23.552Z,24.20
2022-08-16T02:00:51.665Z,24.00
2022-08-16T02:03:21.327Z,24.00
2022-08-16T02:05:52.543Z,23.90
2022-08-16T02:08:33.009Z,23.90
2022-08-16T02:11:04.874Z,23.90
2022-08-16T02:13:33.078Z,23.80
2022-08-16T02:16:01.302Z,23.80
2022-08-16T02:18:29.603Z,23.80
2022-08-16T02:20:57.438Z,23.80
2022-08-16T02:23:29.456Z,23.90
2022-08-16T02:25:59.938Z,23.80
2022-08-16T02:28:30.118Z,23.70
2022-08-16T02:31:00.488Z,23.60
2022-08-16T02:33:42.851Z,23.70
2022-08-16T02:36:14.297Z,23.70
2022-08-16T02:39:01.837Z,23.70
2022-08-16T02:41:29.815Z,23.70
2022-08-16T02:44:00.074Z,23.70
2022-08-16T02:46:33.308Z,23.60
2022-08-16T02:49:01.998Z,23.60
2022-08-16T02:51:30.001Z,23.60
2022-08-16T02:54:01.180Z,23.70
2022-08-16T02:56:32.283Z,23.70
2022-08-16T02:59:02.156Z,23.70
2022-08-16T03:01:36.592Z,23.70
2022-08-16T03:04:40.806Z,23.70
2022-08-16T03:06:56.791Z,23.70
2022-08-16T03:09:28.714Z,23.60
2022-08-16T03:11:58.094Z,23.60
2022-08-16T03:14:27.602Z,23.50
2022-08-16T03:16:59.764Z,23.50
2022-08-16T03:19:48.149Z,23.60
2022-08-16T03:22:19.092Z,23.60
2022-08-16T03:24:57.403Z,23.40
2022-08-16T03:27:25.559Z,23.40
2022-08-16T03:30:01.080Z,23.40
2022-08-16T03:32:29.969Z,23.50
2022-08-16T03:34:57.737Z,23.50
2022-08-16T03:37:25.559Z,23.50
2022-08-16T03:39:56.234Z,23.40
2022-08-16T03:42:24.868Z,23.40
2022-08-16T03:45:02.884Z,23.50
2022-08-16T03:47:34.304Z,23.50
2022-08-16T03:50:03.286Z,23.40
2022-08-16T03:52:31.474Z,23.40
2022-08-16T03:55:00.504Z,23.40
2022-08-16T03:57:31.686Z,23.30
2022-08-16T04:00:12.274Z,23.30
2022-08-16T04:03:07.358Z,23.20
2022-08-16T04:05:37.679Z,23.20
2022-08-16T04:08:23.071Z,23.00
2022-08-16T04:10:53.306Z,23.00
2022-08-16T04:14:01.590Z,22.90
2022-08-16T04:16:21.883Z,23.00
2022-08-16T04:19:02.015Z,23.00
2022-08-16T04:21:30.800Z,23.00
2022-08-16T04:24:00.231Z,22.90
2022-08-16T04:26:31.207Z,22.90
2022-08-16T04:29:18.298Z,22.80
2022-08-16T04:31:56.129Z,22.70
2022-08-16T04:34:29.639Z,22.70
2022-08-16T04:37:00.984Z,22.60
2022-08-16T04:39:46.052Z,22.70
2022-08-16T04:42:16.206Z,22.70
2022-08-16T04:44:53.410Z,22.70
2022-08-16T04:47:24.149Z,22.80
2022-08-16T04:49:54.043Z,22.90
2022-08-16T04:52:33.748Z,22.80
2022-08-16T04:55:06.106Z,22.90
2022-08-16T04:57:34.128Z,22.90
2022-08-16T05:00:32.308Z,22.90
2022-08-16T05:02:54.881Z,23.00
2022-08-16T05:05:25.537Z,23.10
2022-08-16T05:08:00.817Z,23.10
2022-08-16T05:10:48.608Z,23.20
2022-08-16T05:13:19.034Z,23.30
2022-08-16T05:15:46.992Z,23.40
2022-08-16T05:18:21.991Z,23.50
2022-08-16T05:21:01.624Z,23.40
2022-08-16T05:23:38.800Z,23.50
2022-08-16T05:26:19.562Z,23.60
2022-08-16T05:28:55.669Z,23.80
2022-08-16T05:31:24.236Z,23.90
2022-08-16T05:33:58.578Z,23.90
2022-08-16T05:36:33.893Z,24.00
2022-08-16T05:39:06.795Z,24.10
2022-08-16T05:41:44.719Z,24.20
2022-08-16T05:44:22.546Z,24.20
2022-08-16T05:46:54.685Z,24.30
2022-08-16T05:49:23.443Z,24.30
2022-08-16T05:51:52.958Z,24.30
2022-08-16T05:54:25.735Z,24.20
2022-08-16T05:56:55.716Z,24.30
2022-08-16T05:59:24.219Z,24.40
2022-08-16T06:01:54.878Z,24.60
2022-08-16T06:04:34.804Z,24.80
2022-08-16T06:07:09.124Z,25.00
2022-08-16T06:09:59.572Z,25.20
2022-08-16T06:12:29.003Z,25.40
2022-08-16T06:15:04.313Z,25.50
2022-08-16T06:17:42.438Z,25.90
2022-08-16T06:20:18.061Z,26.10
2022-08-16T06:22:58.812Z,26.10
2022-08-16T06:25:36.712Z,26.20
2022-08-16T06:28:09.765Z,26.20
2022-08-16T06:30:44.146Z,26.30
2022-08-16T06:33:19.907Z,26.50
2022-08-16T06:35:55.186Z,26.80
2022-08-16T06:38:33.649Z,26.90
2022-08-16T06:41:04.111Z,27.00
2022-08-16T06:43:33.081Z,27.20
2022-08-16T06:46:03.896Z,27.00
2022-08-16T06:48:35.076Z,27.00
2022-08-16T06:51:04.290Z,26.90
2022-08-16T06:53:35.522Z,26.90
2022-08-16T06:56:06.622Z,26.60
2022-08-16T06:58:43.110Z,26.80
2022-08-16T07:01:14.798Z,27.00
2022-08-16T07:03:55.637Z,26.90
2022-08-16T07:06:26.686Z,26.90
2022-08-16T07:08:56.845Z,26.80
2022-08-16T07:11:48.181Z,26.90
2022-08-16T07:14:24.274Z,26.80
2022-08-16T07:16:58.217Z,26.90
2022-08-16T07:19:33.639Z,26.80
2022-08-16T07:22:38.687Z,27.10
2022-08-16T07:25:05.341Z,27.00
2022-08-16T07:27:33.658Z,27.10
2022-08-16T07:30:02.007Z,27.20
2022-08-16T07:32:32.428Z,27.20
2022-08-16T07:35:02.856Z,27.30
2022-08-16T07:37:30.627Z,27.40
2022-08-16T07:39:58.720Z,27.50
2022-08-16T07:42:34.894Z,27.70
2022-08-16T07:45:07.615Z,27.80
2022-08-16T07:47:38.344Z,27.90
2022-08-16T07:50:57.448Z,27.90
2022-08-16T07:53:00.207Z,28.20
2022-08-16T07:55:30.311Z,28.00
2022-08-16T07:58:18.525Z,28.30
2022-08-16T08:01:05.517Z,28.50
2022-08-16T08:03:42.515Z,28.50
2022-08-16T08:06:13.364Z,28.50
2022-08-16T08:08:49.802Z,28.50
2022-08-16T08:11:21.301Z,28.80
2022-08-16T08:13:51.196Z,28.80
2022-08-16T08:16:19.913Z,29.00
2022-08-16T08:18:50.549Z,29.20
2022-08-16T08:21:58.183Z,29.30
2022-08-16T08:24:17.387Z,29.50
2022-08-16T08:26:49.836Z,29.80
2022-08-16T08:29:22.969Z,29.90
2022-08-16T08:32:57.571Z,29.90
2022-08-16T08:34:53.929Z,30.00
2022-08-16T08:37:22.513Z,30.10
2022-08-16T08:39:55.177Z,30.20
2022-08-16T08:42:26.761Z,30.10
2022-08-16T08:44:57.148Z,30.30
2022-08-16T08:47:25.059Z,30.00
2022-08-16T08:49:55.507Z,29.90
2022-08-16T08:52:33.678Z,29.90
2022-08-16T08:55:10.383Z,30.20
2022-08-16T08:57:40.958Z,30.30
2022-08-16T09:00:13.792Z,30.30
2022-08-16T09:02:45.675Z,30.60
2022-08-16T09:05:23.048Z,30.70
2022-08-16T09:08:06.086Z,30.80
2022-08-16T09:10:34.861Z,30.70
2022-08-16T09:13:08.821Z,31.00
2022-08-16T09:15:40.758Z,30.60
2022-08-16T09:18:25.384Z,30.40
2022-08-16T09:20:58.850Z,30.50
2022-08-16T09:23:28.067Z,30.80
2022-08-16T09:25:55.940Z,30.60
2022-08-16T09:29:06.819Z,30.90
2022-08-16T09:31:13.944Z,31.00
2022-08-16T09:33:42.972Z,31.40
2022-08-16T09:36:12.081Z,31.50
2022-08-16T09:39:01.012Z,31.40
2022-08-16T09:41:28.831Z,31.50
2022-08-16T09:44:00.475Z,31.40
2022-08-16T09:46:48.458Z,31.10
2022-08-16T09:49:20.207Z,31.10
2022-08-16T09:51:53.327Z,31.30
2022-08-16T09:54:22.122Z,31.10
2022-08-16T09:56:54.380Z,31.00
2022-08-16T09:59:23.347Z,31.30
2022-08-16T10:01:53.227Z,31.40
2022-08-16T10:04:31.225Z,31.40
2022-08-16T10:07:15.274Z,31.50
2022-08-16T10:09:53.634Z,31.90
2022-08-16T10:12:43.596Z,31.80
2022-08-16T10:15:15.900Z,31.70
2022-08-16T10:18:00.716Z,31.60
2022-08-16T10:20:31.675Z,31.80
2022-08-16T10:23:06.162Z,32.00
2022-08-16T10:27:18.632Z,31.90
2022-08-16T10:28:29.995Z,31.80
2022-08-16T10:31:03.464Z,31.80
2022-08-16T10:33:34.791Z,31.90
2022-08-16T10:36:38.150Z,31.70
2022-08-16T10:39:01.994Z,32.00
2022-08-16T10:41:29.956Z,32.10
2022-08-16T10:43:58.373Z,32.20
2022-08-16T10:46:39.878Z,32.20
2022-08-16T10:49:12.510Z,32.20
2022-08-16T10:52:01.306Z,32.60
2022-08-16T10:54:32.103Z,32.40
2022-08-16T10:57:01.024Z,32.50
2022-08-16T10:59:44.973Z,32.00
2022-08-16T11:02:59.696Z,32.10
2022-08-16T11:05:14.394Z,32.30
2022-08-16T11:07:45.206Z,31.40
2022-08-16T11:19:03.672Z,32.00
2022-08-16T11:22:11.098Z,32.30
2022-08-16T11:24:39.733Z,32.60
2022-08-16T11:27:32.476Z,32.70
2022-08-16T11:29:57.877Z,32.70
2022-08-16T11:32:32.060Z,32.80
2022-08-16T11:35:14.950Z,32.70
2022-08-16T11:38:24.039Z,32.50
2022-08-16T11:40:44.369Z,32.70
2022-08-16T11:43:16.925Z,32.50
2022-08-16T11:45:53.510Z,32.80
2022-08-16T11:48:22.506Z,32.90
2022-08-16T11:50:50.379Z,32.80
2022-08-16T11:53:22.009Z,32.90
2022-08-16T11:55:55.084Z,33.20
2022-08-16T11:58:24.480Z,33.50
2022-08-16T12:00:53.838Z,33.70
2022-08-16T12:03:34.638Z,33.60
2022-08-16T12:06:11.160Z,33.70
2022-08-16T12:09:01.075Z,33.90
2022-08-16T12:11:31.537Z,33.90
2022-08-16T12:14:00.289Z,33.90
2022-08-16T12:16:31.172Z,33.90
2022-08-16T12:19:02.663Z,33.70
2022-08-16T12:21:35.872Z,33.70
2022-08-16T12:24:22.183Z,33.70
2022-08-16T12:26:52.393Z,33.70
2022-08-16T12:29:20.728Z,33.60
2022-08-16T12:32:01.283Z,33.50
2022-08-16T12:34:39.799Z,33.70
2022-08-16T12:37:18.795Z,33.30
2022-08-16T12:39:50.882Z,33.70
2022-08-16T12:42:20.851Z,33.70
2022-08-16T12:44:52.595Z,33.90
2022-08-16T12:47:38.211Z,33.60
2022-08-16T12:50:07.580Z,33.80
2022-08-16T12:52:41.698Z,33.80
2022-08-16T12:55:23.902Z,33.50
2022-08-16T12:58:01.715Z,33.60
2022-08-16T13:00:33.057Z,33.60
2022-08-16T13:03:03.276Z,33.60
2022-08-16T13:08:07.579Z,33.60
2022-08-16T13:10:50.726Z,33.60
2022-08-16T13:13:25.375Z,33.60
2022-08-16T13:15:55.949Z,33.50
2022-08-16T13:18:33.734Z,33.50
2022-08-16T13:21:03.232Z,33.40
2022-08-16T13:23:31.219Z,33.50
2022-08-16T13:26:00.629Z,33.30
2022-08-16T13:28:28.408Z,33.10
2022-08-16T13:30:57.889Z,32.90
2022-08-16T13:33:30.449Z,33.10
2022-08-16T13:36:01.289Z,32.80
2022-08-16T13:38:36.457Z,32.70
2022-08-16T13:41:09.771Z,33.00
2022-08-16T13:43:39.047Z,33.30
2022-08-16T13:46:07.578Z,33.40
2022-08-16T13:48:42.826Z,33.30
2022-08-16T13:51:16.860Z,33.30
2022-08-16T13:53:54.416Z,33.10
2022-08-16T13:56:37.394Z,33.40
2022-08-16T13:59:16.558Z,33.40
2022-08-16T14:01:54.518Z,33.60
2022-08-16T14:04:26.806Z,33.60
2022-08-16T14:06:56.406Z,33.60
2022-08-16T14:09:24.973Z,33.60
2022-08-16T14:11:57.568Z,33.60
2022-08-16T14:14:29.047Z,33.40
2022-08-16T14:16:57.982Z,33.40
2022-08-16T14:19:27.691Z,33.50
2022-08-16T14:22:14.365Z,33.40
2022-08-16T14:24:47.478Z,33.50
2022-08-16T14:27:18.047Z,33.40
2022-08-16T14:29:49.318Z,33.40
2022-08-16T14:32:26.993Z,33.30
2022-08-16T14:35:04.190Z,33.50
2022-08-16T14:37:32.123Z,33.30
2022-08-16T14:40:00.797Z,33.50
2022-08-16T14:42:30.051Z,33.50
2022-08-16T14:45:00.269Z,33.20
2022-08-16T14:47:34.288Z,33.30
2022-08-16T14:50:03.218Z,33.20
2022-08-16T14:55:23.002Z,33.50
2022-08-16T14:57:52.846Z,33.30
2022-08-16T15:00:33.167Z,33.40
2022-08-16T15:03:04.760Z,33.50
2022-08-16T15:05:33.947Z,33.10
2022-08-16T15:08:03.102Z,33.40
2022-08-16T15:10:32.248Z,33.20
2022-08-16T15:13:01.959Z,33.50
2022-08-16T15:15:31.512Z,33.60
2022-08-16T15:18:01.727Z,33.80
2022-08-16T15:20:33.685Z,33.90
2022-08-16T15:23:03.605Z,33.80
2022-08-16T15:25:35.145Z,34.00
2022-08-16T15:28:08.606Z,34.10
2022-08-16T15:30:59.312Z,34.20
2022-08-16T15:33:29.127Z,34.20
2022-08-16T15:36:00.288Z,34.20
2022-08-16T15:38:57.874Z,34.30
2022-08-16T15:41:53.799Z,34.40
2022-08-16T15:44:25.868Z,33.90
2022-08-16T15:46:58.641Z,33.70
2022-08-16T15:49:36.987Z,33.80
2022-08-16T15:52:10.464Z,33.80
2022-08-16T15:54:52.198Z,34.00
2022-08-16T15:57:22.261Z,34.10
2022-08-16T15:59:55.772Z,34.30
2022-08-16T16:02:29.653Z,34.20
2022-08-16T16:05:04.402Z,34.30
2022-08-16T16:07:33.772Z,34.40
2022-08-16T16:10:03.698Z,34.20
2022-08-16T16:12:50.260Z,34.40
2022-08-16T16:15:24.511Z,34.40
2022-08-16T16:17:53.368Z,34.50
2022-08-16T16:20:24.483Z,34.40
2022-08-16T16:22:57.691Z,34.20
2022-08-16T16:25:26.364Z,33.80
2022-08-16T16:27:55.821Z,33.70
2022-08-16T16:30:38.159Z,33.90
2022-08-16T16:33:21.319Z,34.00
2022-08-16T16:35:55.342Z,34.00
2022-08-16T16:38:30.753Z,34.00
2022-08-16T16:40:59.371Z,34.10
2022-08-16T16:43:31.888Z,34.10
2022-08-16T16:46:03.315Z,34.00
2022-08-16T16:48:52.043Z,33.90
2022-08-16T16:51:22.224Z,34.00
2022-08-16T16:53:55.748Z,34.10
2022-08-16T16:56:31.271Z,34.10
2022-08-16T16:59:04.502Z,34.00
2022-08-16T17:01:56.583Z,34.00
2022-08-16T17:04:31.871Z,34.10
2022-08-16T17:07:01.650Z,34.10
2022-08-16T17:09:29.798Z,33.80
2022-08-16T17:11:58.410Z,33.90
2022-08-16T17:14:33.477Z,33.90
2022-08-16T17:17:06.794Z,33.70
2022-08-16T17:19:40.918Z,33.90
2022-08-16T17:22:14.497Z,33.80
2022-08-16T17:24:44.988Z,33.70
2022-08-16T17:27:18.141Z,33.60
2022-08-16T17:29:47.465Z,33.50
2022-08-16T17:32:46.460Z,33.50
2022-08-16T17:35:18.103Z,33.40
2022-08-16T17:37:50.918Z,33.50
2022-08-16T17:40:38.070Z,33.40
2022-08-16T17:43:12.566Z,33.30
2022-08-16T17:45:41.266Z,33.20
2022-08-16T17:48:10.849Z,33.00
2022-08-16T17:50:39.144Z,33.10
2022-08-16T17:53:07.724Z,33.00
2022-08-16T17:55:38.628Z,32.90
2022-08-16T17:58:21.293Z,32.90
2022-08-16T18:00:51.694Z,33.00
2022-08-16T18:04:06.907Z,33.00
2022-08-16T18:06:15.673Z,32.90
2022-08-16T18:08:43.679Z,32.80
2022-08-16T18:11:13.344Z,32.70
2022-08-16T18:13:43.065Z,32.60
2022-08-16T18:16:11.541Z,32.80
2022-08-16T18:18:40.788Z,32.60
2022-08-16T18:21:26.370Z,32.40
2022-08-16T18:23:54.666Z,32.40
2022-08-16T18:26:22.523Z,32.20
2022-08-16T18:28:50.560Z,32.20
2022-08-16T18:31:18.457Z,32.00
2022-08-16T18:33:47.600Z,32.00
2022-08-16T18:36:21.182Z,32.00
2022-08-16T18:38:49.859Z,31.80
2022-08-16T18:41:18.472Z,31.60
2022-08-16T18:44:24.121Z,31.50
2022-08-16T18:46:34.387Z,31.50
2022-08-16T18:49:03.768Z,31.30
2022-08-16T18:51:32.336Z,31.10
2022-08-16T18:54:00.301Z,31.00
2022-08-16T18:56:56.073Z,31.00
2022-08-16T18:59:16.223Z,31.00
2022-08-16T19:01:44.090Z,30.90
2022-08-16T19:04:47.623Z,30.90
2022-08-16T19:07:01.559Z,30.80
2022-08-16T19:09:29.607Z,30.80
2022-08-16T19:11:57.452Z,30.80
2022-08-16T19:14:29.995Z,30.70
2022-08-16T19:16:57.890Z,30.70
2022-08-16T19:19:27.275Z,30.70
2022-08-16T19:21:55.130Z,30.70
2022-08-16T19:24:22.967Z,30.80
2022-08-16T19:26:57.236Z,30.80
2022-08-16T19:29:25.185Z,30.70
2022-08-16T19:31:53.273Z,30.50
2022-08-16T19:34:21.105Z,30.50
2022-08-16T19:36:50.497Z,30.30
2022-08-16T19:39:18.528Z,30.10
2022-08-16T19:41:53.863Z,30.10
2022-08-16T19:44:22.635Z,30.00
2022-08-16T19:46:50.617Z,29.80
2022-08-16T19:49:18.519Z,30.10
2022-08-16T19:51:46.883Z,29.90
2022-08-16T19:54:17.184Z,29.90
2022-08-16T19:56:45.100Z,29.90
2022-08-16T19:59:19.964Z,30.00
2022-08-16T20:01:51.874Z,30.10
2022-08-16T20:04:21.479Z,30.10
2022-08-16T20:06:49.386Z,29.90
2022-08-16T20:09:18.677Z,29.90
2022-08-16T20:11:48.020Z,29.80
2022-08-16T20:14:20.225Z,29.60
2022-08-16T20:16:55.507Z,29.60
2022-08-16T20:19:23.386Z,29.60
2022-08-16T20:21:51.263Z,29.30
2022-08-16T20:24:33.947Z,29.20
2022-08-16T20:27:04.419Z,29.10
2022-08-16T20:29:32.266Z,29.00
2022-08-16T20:32:00.241Z,28.80
2022-08-16T20:34:28.080Z,29.00
2022-08-16T20:36:55.896Z,29.00
2022-08-16T20:39:25.232Z,28.70
2022-08-16T20:41:53.240Z,28.80
2022-08-16T20:44:22.840Z,28.80
2022-08-16T20:46:50.982Z,28.70
2022-08-16T20:49:18.851Z,28.70
2022-08-16T20:51:50.538Z,28.60
2022-08-16T20:54:22.511Z,28.40
2022-08-16T20:56:51.855Z,28.10
2022-08-16T20:59:19.878Z,27.90
2022-08-16T21:01:50.317Z,27.70
2022-08-16T21:04:19.046Z,27.70
2022-08-16T21:06:53.597Z,27.80
2022-08-16T21:09:23.486Z,27.60
2022-08-16T21:11:53.928Z,27.60
2022-08-16T21:14:21.910Z,27.60
2022-08-16T21:16:49.773Z,27.60
2022-08-16T21:19:18.156Z,27.50
2022-08-16T21:21:45.990Z,27.50
2022-08-16T21:24:15.080Z,27.40
2022-08-16T21:26:47.408Z,27.50
2022-08-16T21:29:39.570Z,27.60
2022-08-16T21:32:13.703Z,27.70
2022-08-16T21:34:42.958Z,27.50
2022-08-16T21:37:10.895Z,27.60
2022-08-16T21:39:38.866Z,27.60
2022-08-16T21:42:10.318Z,27.70
2022-08-16T21:44:39.913Z,27.70
2022-08-16T21:47:08.404Z,27.90
2022-08-16T21:49:37.743Z,27.70
2022-08-16T21:52:06.419Z,27.80
2022-08-16T21:54:34.373Z,27.70
2022-08-16T21:57:02.242Z,27.70
2022-08-16T21:59:30.138Z,27.50
2022-08-16T22:02:00.351Z,27.40
2022-08-16T22:04:37.921Z,27.50
2022-08-16T22:07:06.948Z,27.30
2022-08-16T22:09:34.994Z,27.30
2022-08-16T22:12:03.111Z,27.20
2022-08-16T22:14:31.077Z,27.10
2022-08-16T22:17:00.432Z,27.20
2022-08-16T22:19:28.294Z,27.00
2022-08-16T22:21:56.518Z,27.00
2022-08-16T22:24:24.301Z,27.10
2022-08-16T22:26:52.179Z,27.00
2022-08-16T22:29:20.318Z,26.80
2022-08-16T22:31:48.223Z,26.80
2022-08-16T22:34:17.544Z,26.90
2022-08-16T22:36:45.593Z,26.80
2022-08-16T22:39:15.122Z,26.90
2022-08-16T22:41:45.697Z,26.80
2022-08-16T22:44:13.939Z,26.80
2022-08-16T22:46:43.392Z,26.70
2022-08-16T22:49:11.914Z,26.60
2022-08-16T22:51:41.402Z,26.70
2022-08-16T22:54:41.332Z,26.80
2022-08-16T22:56:57.726Z,26.60
2022-08-16T22:59:26.077Z,26.60
2022-08-16T23:01:54.611Z,26.60
2022-08-16T23:04:22.798Z,26.60
2022-08-16T23:06:52.519Z,26.40
2022-08-16T23:09:20.509Z,26.50
2022-08-16T23:11:49.034Z,26.40
2022-08-16T23:14:18.051Z,26.30
2022-08-16T23:16:47.452Z,26.20
2022-08-16T23:19:17.459Z,26.20
2022-08-16T23:21:48.282Z,26.30
2022-08-16T23:24:19.314Z,26.20
2022-08-16T23:26:48.984Z,26.20
2022-08-16T23:29:24.422Z,26.00
2022-08-16T23:31:57.471Z,25.90
2022-08-16T23:34:27.848Z,25.80
2022-08-16T23:36:55.950Z,25.80
2022-08-16T23:39:25.962Z,25.70
2022-08-16T23:41:54.108Z,25.70
2022-08-16T23:44:57.209Z,25.70
2022-08-16T23:47:09.783Z,25.90
2022-08-16T23:49:59.556Z,25.90
2022-08-16T23:52:53.271Z,25.80
2022-08-16T23:55:16.427Z,25.80
2022-08-16T23:57:45.827Z,25.80
